createdAt,value
2018-07-26T00:00:52.568Z,4.07
2018-07-26T00:03:21.815Z,4.93
2018-07-26T00:05:50.493Z,4.63
2018-07-26T00:08:19.691Z,5.23
2018-07-26T00:10:55.423Z,4.90
2018-07-26T00:13:24.738Z,4.67
2018-07-26T00:15:53.918Z,5.40
2018-07-26T00:18:23.162Z,4.37
2018-07-26T00:20:52.427Z,4.37
2018-07-26T00:23:21.738Z,4.30
2018-07-26T00:25:50.540Z,4.80
2018-07-26T00:28:19.856Z,4.53
2018-07-26T00:30:49.195Z,4.50
2018-07-26T00:33:18.495Z,4.80
2018-07-26T00:35:48.012Z,4.70
2018-07-26T00:38:16.885Z,4.83
2018-07-26T00:40:46.159Z,4.93
2018-07-26T00:43:15.464Z,5.10
2018-07-26T00:45:44.695Z,4.40
2018-07-26T00:48:13.942Z,5.20
2018-07-26T00:50:43.195Z,4.43
2018-07-26T00:53:12.483Z,4.63
2018-07-26T00:55:41.780Z,5.40
2018-07-26T00:58:11.135Z,4.03
2018-07-26T01:00:40.354Z,5.20
2018-07-26T01:03:09.636Z,4.50
2018-07-26T01:05:38.971Z,4.57
2018-07-26T01:08:08.263Z,4.80
2018-07-26T01:10:37.623Z,5.13
2018-07-26T01:13:06.820Z,5.67
2018-07-26T01:15:35.990Z,5.03
2018-07-26T01:18:05.315Z,5.03
2018-07-26T01:20:34.523Z,5.20
2018-07-26T01:23:03.746Z,4.83
2018-07-26T01:25:32.987Z,4.43
2018-07-26T01:28:02.267Z,4.87
2018-07-26T01:30:31.590Z,4.90
2018-07-26T01:33:00.894Z,5.40
2018-07-26T01:35:30.087Z,4.83
2018-07-26T01:37:59.246Z,5.00
2018-07-26T01:40:28.595Z,4.73
2018-07-26T01:43:08.744Z,4.83
2018-07-26T01:45:38.111Z,5.40
2018-07-26T01:48:07.432Z,5.13
2018-07-26T01:50:36.675Z,5.60
2018-07-26T01:53:05.993Z,4.30
2018-07-26T01:55:35.210Z,6.13
2018-07-26T01:58:04.401Z,4.50
2018-07-26T02:00:33.736Z,5.37
2018-07-26T02:03:02.917Z,5.20
2018-07-26T02:05:32.220Z,5.30
2018-07-26T02:08:01.531Z,5.60
2018-07-26T02:10:30.831Z,6.27
2018-07-26T02:13:00.107Z,5.37
2018-07-26T02:15:29.462Z,5.70
2018-07-26T02:17:58.919Z,5.63
2018-07-26T02:20:28.298Z,5.23
2018-07-26T02:22:57.562Z,5.33
2018-07-26T02:25:26.779Z,5.63
2018-07-26T02:27:55.530Z,6.13
2018-07-26T02:30:24.815Z,5.77
2018-07-26T02:32:54.059Z,6.07
2018-07-26T02:35:23.346Z,6.60
2018-07-26T02:37:52.672Z,5.60
2018-07-26T02:40:21.966Z,6.13
2018-07-26T02:42:51.203Z,5.33
2018-07-26T02:45:20.499Z,5.40
2018-07-26T02:47:49.872Z,5.37
2018-07-26T02:50:19.252Z,6.17
2018-07-26T02:52:48.515Z,5.33
2018-07-26T02:55:17.820Z,6.07
2018-07-26T02:57:47.070Z,5.00
2018-07-26T03:00:16.384Z,5.20
2018-07-26T03:02:45.662Z,5.50
2018-07-26T03:05:14.991Z,5.60
2018-07-26T03:07:44.293Z,5.43
2018-07-26T03:10:13.568Z,4.97
2018-07-26T03:12:42.987Z,5.57
2018-07-26T03:15:12.284Z,5.80
2018-07-26T03:17:45.164Z,5.50
2018-07-26T03:20:14.512Z,4.87
2018-07-26T03:22:43.823Z,5.40
2018-07-26T03:25:13.104Z,4.80
2018-07-26T03:27:42.354Z,5.63
2018-07-26T03:30:11.572Z,5.20
2018-07-26T03:32:40.863Z,4.77
2018-07-26T03:35:10.122Z,5.50
2018-07-26T03:37:39.411Z,6.13
2018-07-26T03:40:08.675Z,5.80
2018-07-26T03:42:37.942Z,5.60
2018-07-26T03:45:07.678Z,5.43
2018-07-26T03:47:36.986Z,5.00
2018-07-26T03:50:06.243Z,5.73
2018-07-26T03:52:35.527Z,6.33
2018-07-26T03:55:04.806Z,6.17
2018-07-26T03:57:34.100Z,5.80
2018-07-26T04:00:03.623Z,5.37
2018-07-26T04:02:32.908Z,5.07
2018-07-26T04:05:02.183Z,5.50
2018-07-26T04:07:31.520Z,5.80
2018-07-26T04:10:00.777Z,5.33
2018-07-26T04:12:30.048Z,5.87
2018-07-26T04:14:59.356Z,5.10
2018-07-26T04:17:28.549Z,5.60
2018-07-26T04:19:57.896Z,5.00
2018-07-26T04:22:27.176Z,5.17
2018-07-26T04:24:56.583Z,6.13
2018-07-26T04:27:25.986Z,4.97
2018-07-26T04:29:56.116Z,5.40
2018-07-26T04:32:25.337Z,4.93
2018-07-26T04:34:54.663Z,6.20
2018-07-26T04:37:24.000Z,5.20
2018-07-26T04:39:53.339Z,4.07
2018-07-26T04:42:22.643Z,5.97
2018-07-26T04:44:51.922Z,5.67
2018-07-26T04:47:21.139Z,5.57
2018-07-26T04:49:50.452Z,6.37
2018-07-26T04:52:19.741Z,5.37
2018-07-26T04:54:49.003Z,5.70
2018-07-26T04:57:18.180Z,6.17
2018-07-26T04:59:47.431Z,6.30
2018-07-26T05:02:16.638Z,5.73
2018-07-26T05:04:45.894Z,5.50
2018-07-26T05:07:15.180Z,6.30
2018-07-26T05:09:44.568Z,5.57
2018-07-26T05:12:13.893Z,6.00
2018-07-26T05:14:43.223Z,6.43
2018-07-26T05:17:13.019Z,6.27
2018-07-26T05:19:42.363Z,5.90
2018-07-26T05:22:11.671Z,6.40
2018-07-26T05:24:41.026Z,6.00
2018-07-26T05:27:10.409Z,6.53
2018-07-26T05:29:39.642Z,6.60
2018-07-26T05:32:08.919Z,6.53
2018-07-26T05:34:38.191Z,5.90
2018-07-26T05:37:07.526Z,6.07
2018-07-26T05:39:36.851Z,5.83
2018-07-26T05:42:06.361Z,6.27
2018-07-26T05:44:35.533Z,5.83
2018-07-26T05:47:04.849Z,5.43
2018-07-26T05:49:34.138Z,6.10
2018-07-26T05:52:03.415Z,5.30
2018-07-26T05:54:32.716Z,5.30
2018-07-26T05:57:01.471Z,5.87
2018-07-26T05:59:30.698Z,5.13
2018-07-26T06:02:00.013Z,5.77
2018-07-26T06:04:29.407Z,5.33
2018-07-26T06:06:59.210Z,5.10
2018-07-26T06:09:28.542Z,5.90
2018-07-26T06:11:57.867Z,5.97
2018-07-26T06:14:27.158Z,5.60
2018-07-26T06:16:56.391Z,4.80
2018-07-26T06:19:25.672Z,4.80
2018-07-26T06:21:54.975Z,4.60
2018-07-26T06:24:24.307Z,4.70
2018-07-26T06:26:53.528Z,5.30
2018-07-26T06:29:22.778Z,4.77
2018-07-26T06:31:52.284Z,4.53
2018-07-26T06:34:21.732Z,4.83
2018-07-26T06:36:51.013Z,4.47
2018-07-26T06:39:20.314Z,4.70
2018-07-26T06:41:49.514Z,5.00
2018-07-26T06:44:18.815Z,5.57
2018-07-26T06:46:48.162Z,4.20
2018-07-26T06:49:17.547Z,4.03
2018-07-26T06:51:46.819Z,4.90
2018-07-26T06:54:16.029Z,4.60
2018-07-26T06:56:45.219Z,3.97
2018-07-26T06:59:14.438Z,4.40
2018-07-26T07:01:43.694Z,5.07
2018-07-26T07:04:12.895Z,4.50
2018-07-26T07:06:42.195Z,4.63
2018-07-26T07:09:12.691Z,5.27
2018-07-26T07:11:41.826Z,4.30
2018-07-26T07:14:10.924Z,4.30
2018-07-26T07:16:40.038Z,4.00
2018-07-26T07:19:09.253Z,4.37
2018-07-26T07:21:38.310Z,4.13
2018-07-26T07:24:07.625Z,4.10
2018-07-26T07:26:36.704Z,3.73
2018-07-26T07:29:05.774Z,4.37
2018-07-26T07:31:34.790Z,3.70
2018-07-26T07:34:03.845Z,3.43
2018-07-26T07:36:32.869Z,3.80
2018-07-26T07:39:01.940Z,4.13
2018-07-26T07:41:31.027Z,4.23
2018-07-26T07:44:00.111Z,3.90
2018-07-26T07:46:29.208Z,3.67
2018-07-26T07:48:58.244Z,4.23
2018-07-26T07:51:27.323Z,3.97
2018-07-26T07:53:56.815Z,4.40
2018-07-26T07:56:25.941Z,3.80
2018-07-26T07:58:55.083Z,3.87
2018-07-26T08:01:24.405Z,4.40
2018-07-26T08:03:53.553Z,4.30
2018-07-26T08:06:22.646Z,3.77
2018-07-26T08:08:52.140Z,3.87
2018-07-26T08:11:21.478Z,3.00
2018-07-26T08:13:50.517Z,3.43
2018-07-26T08:16:20.217Z,3.93
2018-07-26T08:18:49.258Z,3.90
2018-07-26T08:21:18.325Z,3.83
2018-07-26T08:23:47.354Z,3.10
2018-07-26T08:26:16.584Z,3.90
2018-07-26T08:28:45.629Z,3.42
2018-07-26T08:31:14.710Z,3.47
2018-07-26T08:33:43.824Z,3.98
2018-07-26T08:36:12.887Z,3.27
2018-07-26T08:38:42.046Z,3.92
2018-07-26T08:41:11.176Z,3.60
2018-07-26T08:43:40.287Z,3.35
2018-07-26T08:46:09.428Z,3.62
2018-07-26T08:48:38.466Z,3.30
2018-07-26T08:51:07.581Z,3.83
2018-07-26T08:53:36.617Z,3.30
2018-07-26T08:56:05.724Z,3.35
2018-07-26T08:58:34.797Z,3.60
2018-07-26T09:01:03.479Z,3.65
2018-07-26T09:03:32.592Z,3.50
2018-07-26T09:06:01.674Z,3.50
2018-07-26T09:08:30.765Z,3.60
2018-07-26T09:10:59.917Z,3.35
2018-07-26T09:13:28.995Z,3.27
2018-07-26T09:15:58.074Z,2.80
2018-07-26T09:18:27.118Z,3.17
2018-07-26T09:20:56.237Z,2.98
2018-07-26T09:23:25.360Z,3.50
2018-07-26T09:25:54.400Z,3.20
2018-07-26T09:28:23.516Z,3.22
2018-07-26T09:30:52.650Z,3.40
2018-07-26T09:33:21.780Z,3.42
2018-07-26T09:35:50.902Z,3.67
2018-07-26T09:38:23.517Z,3.20
2018-07-26T09:40:52.621Z,3.30
2018-07-26T09:43:22.349Z,2.87
2018-07-26T09:45:51.476Z,3.10
2018-07-26T09:48:20.521Z,3.08
2018-07-26T09:50:49.782Z,2.85
2018-07-26T09:53:18.985Z,3.17
2018-07-26T09:55:48.364Z,3.22
2018-07-26T09:58:17.477Z,3.70
2018-07-26T10:00:51.857Z,3.00
2018-07-26T10:03:20.920Z,3.02
2018-07-26T10:05:50.352Z,2.67
2018-07-26T10:08:19.474Z,2.67
2018-07-26T10:10:48.547Z,2.42
2018-07-26T10:13:17.617Z,3.02
2018-07-26T10:15:46.813Z,2.90
2018-07-26T10:18:15.862Z,2.90
2018-07-26T10:20:45.027Z,3.02
2018-07-26T10:23:14.193Z,2.90
2018-07-26T10:25:43.269Z,3.00
2018-07-26T10:28:12.345Z,2.67
2018-07-26T10:30:41.401Z,2.72
2018-07-26T10:33:10.489Z,2.77
2018-07-26T10:35:39.529Z,3.42
2018-07-26T10:38:08.607Z,2.58
2018-07-26T10:40:37.782Z,3.08
2018-07-26T10:43:06.833Z,2.60
2018-07-26T10:45:36.153Z,2.42
2018-07-26T10:48:05.739Z,2.98
2018-07-26T10:50:37.396Z,2.80
2018-07-26T10:53:11.865Z,2.58
2018-07-26T10:56:04.592Z,3.02
2018-07-26T11:04:56.633Z,3.15
2018-07-26T11:07:27.614Z,3.05
2018-07-26T11:09:58.994Z,3.12
2018-07-26T11:12:28.639Z,2.27
2018-07-26T11:15:11.048Z,2.83
2018-07-26T11:17:47.002Z,2.45
2018-07-26T11:20:19.966Z,2.77
2018-07-26T11:22:51.274Z,2.70
2018-07-26T11:25:24.318Z,2.70
2018-07-26T11:27:53.908Z,3.02
2018-07-26T11:30:23.516Z,2.70
2018-07-26T11:32:52.140Z,3.00
2018-07-26T11:35:20.764Z,2.45
2018-07-26T11:37:49.369Z,2.90
2018-07-26T11:40:17.968Z,2.80
2018-07-26T11:42:46.594Z,3.30
2018-07-26T11:45:23.203Z,2.90
2018-07-26T11:47:51.791Z,2.95
2018-07-26T11:50:20.355Z,2.58
2018-07-26T11:52:48.944Z,2.50
2018-07-26T11:55:17.524Z,3.25
2018-07-26T11:57:46.081Z,2.92
2018-07-26T12:00:14.635Z,3.35
2018-07-26T12:02:43.264Z,2.87
2018-07-26T12:05:11.822Z,2.55
2018-07-26T12:13:19.195Z,2.70
2018-07-26T12:15:47.833Z,2.58
2018-07-26T12:18:33.192Z,2.67
2018-07-26T12:21:03.869Z,3.25
2018-07-26T12:23:32.468Z,3.05
2018-07-26T12:28:47.845Z,2.70
2018-07-26T12:31:16.620Z,2.87
2018-07-26T12:33:45.205Z,3.22
2018-07-26T12:36:14.364Z,3.10
2018-07-26T12:38:42.964Z,3.30
2018-07-26T12:41:11.587Z,3.80
2018-07-26T12:43:40.677Z,3.20
2018-07-26T12:46:09.265Z,3.90
2018-07-26T12:48:37.941Z,3.17
2018-07-26T12:51:13.234Z,3.20
2018-07-26T12:53:41.868Z,3.37
2018-07-26T12:56:10.485Z,3.80
2018-07-26T12:58:39.675Z,3.08
2018-07-26T13:01:08.552Z,2.87
2018-07-26T13:03:37.140Z,3.30
2018-07-26T13:06:05.751Z,3.75
2018-07-26T13:08:34.344Z,3.33
2018-07-26T13:11:02.895Z,3.52
2018-07-26T13:13:31.489Z,3.33
2018-07-26T13:16:00.057Z,3.20
2018-07-26T13:18:28.683Z,3.00
2018-07-26T13:20:57.285Z,3.42
2018-07-26T13:23:25.884Z,3.45
2018-07-26T13:25:54.467Z,2.85
2018-07-26T13:28:23.017Z,2.80
2018-07-26T13:30:51.620Z,2.98
2018-07-26T13:33:20.264Z,2.70
2018-07-26T13:35:48.841Z,2.85
2018-07-26T13:38:17.427Z,2.72
2018-07-26T13:40:46.052Z,2.60
2018-07-26T13:43:14.675Z,2.75
2018-07-26T13:45:43.285Z,3.20
2018-07-26T13:48:11.841Z,2.85
2018-07-26T13:50:40.421Z,2.52
2018-07-26T13:53:08.981Z,3.00
2018-07-26T13:55:37.565Z,2.58
2018-07-26T13:58:06.223Z,2.77
2018-07-26T14:00:34.881Z,2.72
2018-07-26T14:03:03.468Z,2.65
2018-07-26T14:05:32.044Z,2.60
2018-07-26T14:08:00.624Z,2.70
2018-07-26T14:10:29.208Z,2.95
2018-07-26T14:12:57.784Z,2.77
2018-07-26T14:15:26.399Z,3.00
2018-07-26T14:17:55.013Z,2.55
2018-07-26T14:20:23.615Z,2.80
2018-07-26T14:22:52.212Z,2.95
2018-07-26T14:25:20.796Z,2.50
2018-07-26T14:27:49.421Z,2.70
2018-07-26T14:30:18.000Z,2.42
2018-07-26T14:32:46.600Z,2.92
2018-07-26T14:35:18.622Z,2.95
2018-07-26T14:37:47.212Z,2.50
2018-07-26T14:40:15.800Z,2.37
2018-07-26T14:42:44.366Z,2.37
2018-07-26T14:45:12.989Z,2.50
2018-07-26T14:47:41.592Z,2.05
2018-07-26T14:50:10.240Z,2.77
2018-07-26T14:52:42.392Z,2.75
2018-07-26T14:55:11.055Z,2.80
2018-07-26T14:57:39.651Z,2.60
2018-07-26T15:00:08.232Z,3.25
2018-07-26T15:02:36.925Z,2.98
2018-07-26T15:05:05.523Z,2.90
2018-07-26T15:07:34.105Z,2.98
2018-07-26T15:10:02.698Z,3.25
2018-07-26T15:12:31.253Z,3.15
2018-07-26T15:14:59.904Z,2.50
2018-07-26T15:17:29.539Z,2.87
2018-07-26T15:20:07.818Z,2.70
2018-07-26T15:22:38.524Z,2.75
2018-07-26T15:25:10.802Z,3.05
2018-07-26T15:27:40.494Z,2.70
2018-07-26T15:30:09.136Z,2.90
2018-07-26T15:32:37.728Z,2.50
2018-07-26T15:35:06.309Z,2.50
2018-07-26T15:37:34.928Z,2.95
2018-07-26T15:40:03.704Z,2.62
2018-07-26T15:42:32.269Z,2.60
2018-07-26T15:45:00.873Z,2.58
2018-07-26T15:47:29.454Z,2.87
2018-07-26T15:49:58.202Z,2.87
2018-07-26T15:52:26.832Z,2.72
2018-07-26T15:54:55.389Z,2.58
2018-07-26T15:57:24.065Z,2.67
2018-07-26T15:59:53.696Z,2.67
2018-07-26T16:02:22.316Z,2.98
2018-07-26T16:04:51.019Z,2.87
2018-07-26T16:07:19.933Z,3.33
2018-07-26T16:09:48.517Z,3.67
2018-07-26T16:12:17.170Z,4.40
2018-07-26T16:14:45.729Z,2.95
2018-07-26T16:17:14.331Z,3.37
2018-07-26T16:19:42.894Z,3.52
2018-07-26T16:22:11.544Z,3.52
2018-07-26T16:24:40.127Z,3.10
2018-07-26T16:27:08.749Z,3.10
2018-07-26T16:29:37.349Z,3.22
2018-07-26T16:32:05.972Z,3.70
2018-07-26T16:34:34.581Z,3.15
2018-07-26T16:37:03.177Z,3.10
2018-07-26T16:39:37.640Z,2.98
2018-07-26T16:42:08.373Z,3.67
2018-07-26T16:44:38.978Z,3.15
2018-07-26T16:47:07.588Z,3.95
2018-07-26T16:49:36.156Z,3.65
2018-07-26T16:52:04.862Z,3.75
2018-07-26T16:54:33.433Z,3.52
2018-07-26T16:57:02.045Z,3.80
2018-07-26T16:59:30.652Z,3.83
2018-07-26T17:01:59.321Z,3.85
2018-07-26T17:04:28.078Z,3.17
2018-07-26T17:06:56.742Z,4.12
2018-07-26T17:09:25.485Z,4.00
2018-07-26T17:11:54.284Z,4.17
2018-07-26T17:14:22.961Z,3.60
2018-07-26T17:16:51.762Z,4.40
2018-07-26T17:19:20.485Z,4.05
2018-07-26T17:21:49.298Z,3.75
2018-07-26T17:24:19.689Z,3.77
2018-07-26T17:26:48.497Z,4.20
2018-07-26T17:29:17.407Z,3.98
2018-07-26T17:31:46.113Z,4.45
2018-07-26T17:34:14.898Z,4.10
2018-07-26T17:36:43.686Z,4.30
2018-07-26T17:39:13.279Z,4.85
2018-07-26T17:41:42.739Z,3.90
2018-07-26T17:44:12.005Z,3.98
2018-07-26T17:46:41.291Z,4.12
2018-07-26T17:49:10.575Z,3.75
2018-07-26T17:51:39.810Z,4.12
2018-07-26T17:54:09.116Z,3.62
2018-07-26T17:56:38.563Z,4.22
2018-07-26T17:59:07.991Z,3.62
2018-07-26T18:01:37.297Z,4.37
2018-07-26T18:04:06.657Z,3.95
2018-07-26T18:06:35.920Z,3.77
2018-07-26T18:09:06.822Z,3.27
2018-07-26T18:11:36.187Z,4.12
2018-07-26T18:14:05.606Z,3.85
2018-07-26T18:16:34.874Z,4.85
2018-07-26T18:19:04.247Z,4.15
2018-07-26T18:21:33.571Z,3.25
2018-07-26T18:24:02.864Z,4.33
2018-07-26T18:26:32.105Z,4.30
2018-07-26T18:29:01.270Z,3.60
2018-07-26T18:31:30.553Z,3.83
2018-07-26T18:33:59.674Z,4.35
2018-07-26T18:36:28.957Z,4.28
2018-07-26T18:38:58.465Z,4.40
2018-07-26T18:41:27.894Z,3.90
2018-07-26T18:43:57.333Z,3.80
2018-07-26T18:46:26.583Z,4.47
2018-07-26T18:48:55.870Z,3.58
2018-07-26T18:51:25.489Z,4.00
2018-07-26T18:54:07.686Z,3.80
2018-07-26T18:56:36.951Z,4.08
2018-07-26T18:59:06.239Z,3.72
2018-07-26T19:01:35.517Z,3.67
2018-07-26T19:04:06.139Z,4.33
2018-07-26T19:06:35.479Z,4.62
2018-07-26T19:09:07.048Z,4.80
2018-07-26T19:11:36.188Z,4.87
2018-07-26T19:14:08.900Z,3.95
2018-07-26T19:16:38.029Z,4.87
2018-07-26T19:19:07.104Z,3.80
2018-07-26T19:21:36.190Z,4.45
2018-07-26T19:24:05.318Z,3.87
2018-07-26T19:26:34.390Z,4.17
2018-07-26T19:29:03.450Z,4.10
2018-07-26T19:31:37.632Z,3.87
2018-07-26T19:34:06.849Z,3.80
2018-07-26T19:36:35.862Z,4.23
2018-07-26T19:39:08.545Z,3.90
2018-07-26T19:41:44.953Z,4.63
2018-07-26T19:44:14.061Z,4.33
2018-07-26T19:46:43.086Z,4.37
2018-07-26T19:49:12.161Z,4.27
2018-07-26T19:51:41.293Z,4.47
2018-07-26T19:54:10.481Z,3.33
2018-07-26T19:56:58.849Z,4.33
2018-07-26T19:59:27.858Z,4.60
2018-07-26T20:02:16.289Z,4.33
2018-07-26T20:04:45.351Z,3.87
2018-07-26T20:07:14.427Z,3.77
2018-07-26T20:09:57.807Z,4.73
2018-07-26T20:12:26.874Z,4.40
2018-07-26T20:14:55.922Z,4.20
2018-07-26T20:17:25.042Z,4.67
2018-07-26T20:19:54.270Z,4.37
2018-07-26T20:22:23.491Z,4.20
2018-07-26T20:24:52.802Z,4.70
2018-07-26T20:27:22.090Z,4.27
2018-07-26T20:29:51.425Z,4.23
2018-07-26T20:32:20.679Z,4.40
2018-07-26T20:34:49.924Z,4.00
2018-07-26T20:37:20.669Z,3.80
2018-07-26T20:39:49.906Z,4.40
2018-07-26T20:42:19.165Z,4.10
2018-07-26T20:44:48.361Z,4.27
2018-07-26T20:47:17.594Z,4.23
2018-07-26T20:49:46.767Z,4.90
2018-07-26T20:52:15.946Z,4.60
2018-07-26T20:54:45.145Z,3.50
2018-07-26T20:57:14.496Z,4.30
2018-07-26T20:59:43.771Z,4.00
2018-07-26T21:02:13.216Z,4.83
2018-07-26T21:04:42.411Z,4.57
2018-07-26T21:07:11.594Z,5.03
2018-07-26T21:09:40.831Z,4.30
2018-07-26T21:12:10.027Z,4.93
2018-07-26T21:14:39.290Z,4.27
2018-07-26T21:23:01.438Z,4.67
2018-07-26T21:25:30.708Z,4.50
2018-07-26T21:28:00.020Z,4.33
2018-07-26T21:30:29.263Z,4.70
2018-07-26T21:32:58.426Z,4.73
2018-07-26T21:35:27.631Z,4.47
2018-07-26T21:37:56.977Z,4.87
2018-07-26T21:40:26.196Z,4.57
2018-07-26T21:42:55.375Z,5.10
2018-07-26T21:45:24.614Z,4.83
2018-07-26T21:47:53.907Z,4.60
2018-07-26T21:50:23.166Z,4.60
2018-07-26T21:52:52.482Z,5.10
2018-07-26T21:55:21.768Z,4.60
2018-07-26T21:57:51.160Z,5.30
2018-07-26T22:00:20.471Z,4.97
2018-07-26T22:02:49.786Z,4.73
2018-07-26T22:05:19.024Z,4.43
2018-07-26T22:07:48.174Z,5.13
2018-07-26T22:10:17.404Z,4.83
2018-07-26T22:12:46.678Z,4.90
2018-07-26T22:15:15.997Z,5.53
2018-07-26T22:17:45.242Z,5.13
2018-07-26T22:20:14.434Z,5.30
2018-07-26T22:22:43.601Z,5.30
2018-07-26T22:25:12.797Z,4.60
2018-07-26T22:27:42.118Z,4.43
2018-07-26T22:30:11.442Z,4.80
2018-07-26T22:32:40.654Z,4.90
2018-07-26T22:35:09.863Z,5.33
2018-07-26T22:37:39.217Z,5.27
2018-07-26T22:40:08.346Z,5.40
2018-07-26T22:42:37.401Z,4.90
2018-07-26T22:45:07.157Z,4.83
2018-07-26T22:47:36.216Z,5.10
2018-07-26T22:50:06.177Z,4.87
2018-07-26T22:52:35.562Z,5.20
2018-07-26T22:55:04.733Z,5.03
2018-07-26T22:57:33.728Z,4.97
2018-07-26T23:00:02.737Z,4.90
2018-07-26T23:02:31.777Z,4.97
2018-07-26T23:05:00.933Z,4.70
2018-07-26T23:07:29.933Z,4.40
2018-07-26T23:09:59.045Z,4.77
2018-07-26T23:12:28.065Z,4.50
2018-07-26T23:14:57.065Z,4.70
2018-07-26T23:17:26.119Z,4.73
2018-07-26T23:19:55.141Z,4.97
2018-07-26T23:22:24.176Z,5.20
2018-07-26T23:24:53.475Z,5.33
2018-07-26T23:27:22.465Z,4.90
2018-07-26T23:29:51.489Z,5.20
2018-07-26T23:32:20.519Z,4.40
2018-07-26T23:34:49.551Z,4.63
2018-07-26T23:37:18.568Z,4.70
2018-07-26T23:39:47.559Z,4.13
2018-07-26T23:42:16.625Z,4.90
2018-07-26T23:44:45.620Z,4.90
2018-07-26T23:47:14.645Z,4.60
2018-07-26T23:49:43.673Z,4.90
2018-07-26T23:52:12.678Z,5.07
2018-07-26T23:54:41.709Z,5.50
2018-07-26T23:57:10.723Z,4.87
2018-07-26T23:59:39.746Z,5.13
